Time;durP1;ratioP1;P1;durP2;ratioP2;P2;SDS_P1;SDS_P2;PMS_P1;PMS_P2;Temp;Humidity;BMP_temperature;BMP_pressure;BME280_temperature;BME280_humidity;BME280_pressure;Samples;Min_cycle;Max_cycle;Signal;HPM_P1;HPM_P2
2023/08/09 00:19:16;;;;;;;5.32;3.47;;;;;;;13.39;100.00;101088.19;4882029;29;20044;-90
2023/08/09 00:32:53;;;;;;;5.05;3.13;;;;;;;13.49;100.00;101092.06;4881755;29;20092;-89
2023/08/09 00:35:52;;;;;;;5.93;3.53;;;;;;;13.50;100.00;101088.25;4794232;29;20527;-90
2023/08/09 00:41:54;;;;;;;4.88;3.60;;;;;;;13.50;100.00;101090.97;4806477;29;20085;-90
2023/08/09 00:51:06;;;;;;;5.55;3.47;;;;;;;13.33;100.00;101100.78;4806377;29;20504;-90
2023/08/09 00:53:32;;;;;;;5.20;3.67;;;;;;;13.30;100.00;101096.66;4863373;29;20045;-90
2023/08/09 01:13:12;;;;;;;5.50;3.40;;;;;;;13.21;100.00;101106.16;4807585;29;20063;-90
2023/08/09 01:26:06;;;;;;;8.63;3.78;;;;;;;13.03;100.00;101100.72;4843562;29;20130;-91
2023/08/09 01:32:34;;;;;;;5.65;3.70;;;;;;;13.12;100.00;101108.38;4830377;29;20064;-90
2023/08/09 01:35:34;;;;;;;6.40;4.30;;;;;;;13.16;100.00;101114.19;4808558;29;20038;-90
2023/08/09 01:38:44;;;;;;;7.43;4.38;;;;;;;13.20;100.00;101118.13;4808419;29;20034;-90
2023/08/09 01:45:14;;;;;;;7.88;3.78;;;;;;;13.14;100.00;101116.31;4823722;29;20572;-90
2023/08/09 01:54:44;;;;;;;5.28;3.72;;;;;;;12.91;100.00;101130.59;4861416;29;20114;-89
2023/08/09 02:04:38;;;;;;;5.95;4.00;;;;;;;12.69;100.00;101122.81;4861777;29;20529;-90
2023/08/09 02:10:46;;;;;;;6.05;4.05;;;;;;;12.60;100.00;101135.88;4861411;29;20139;-89
2023/08/09 02:16:54;;;;;;;6.38;4.30;;;;;;;12.50;100.00;101135.53;4861655;29;20460;-90
2023/08/09 02:26:08;;;;;;;9.25;4.10;;;;;;;12.39;100.00;101149.88;4861732;29;20527;-90
2023/08/09 02:31:58;;;;;;;7.07;4.82;;;;;;;12.32;100.00;101144.44;4871636;29;20121;-91
2023/08/09 02:51:53;;;;;;;6.28;4.63;;;;;;;12.23;100.00;101167.53;4883245;29;20529;-90
2023/08/09 03:05:13;;;;;;;7.55;4.75;;;;;;;12.11;100.00;101181.81;4882908;29;20049;-90
2023/08/09 03:18:35;;;;;;;7.20;4.63;;;;;;;11.99;100.00;101194.44;4882741;29;20202;-90
2023/08/09 03:31:30;;;;;;;30.50;6.43;;;;;;;11.91;100.00;101181.91;4882633;29;20124;-90
2023/08/09 03:38:35;;;;;;;19.38;6.75;;;;;;;11.84;100.00;101207.44;4882853;29;20197;-90
2023/08/09 03:44:40;;;;;;;16.87;6.67;;;;;;;11.83;100.00;101213.94;4882943;29;20051;-90
2023/08/09 03:47:08;;;;;;;27.17;6.95;;;;;;;11.83;100.00;101216.66;4866060;29;20064;-90
2023/08/09 03:49:33;;;;;;;48.55;7.47;;;;;;;11.82;100.00;101226.69;4866512;29;20033;-90
2023/08/09 03:52:00;;;;;;;56.83;7.43;;;;;;;11.75;100.00;101223.16;4866147;29;20440;-90
2023/08/09 03:54:28;;;;;;;94.07;7.72;;;;;;;11.71;100.00;101230.91;4882665;29;20374;-89
2023/08/09 03:56:56;;;;;;;119.63;9.55;;;;;;;11.70;100.00;101229.22;4865855;29;20041;-89
2023/08/09 04:02:51;;;;;;;30.17;6.73;;;;;;;11.65;100.00;101231.75;4882212;29;20033;-90
2023/08/09 04:08:57;;;;;;;;;;;;;;;;;;;;;
2023/08/09 04:18:48;;;;;;;20.83;7.20;;;;;;;11.56;100.00;101252.91;4843703;29;20058;-90
2023/08/09 04:25:10;;;;;;;12.35;7.20;;;;;;;11.65;100.00;101256.22;4882444;29;20040;-91
2023/08/09 04:31:14;;;;;;;19.38;7.88;;;;;;;11.62;100.00;101255.78;4882464;29;20069;-91
2023/08/09 04:47:37;;;;;;;17.00;8.73;;;;;;;11.76;100.00;101271.03;4807351;29;20044;-90
2023/08/09 04:57:14;;;;;;;16.85;9.38;;;;;;;11.83;100.00;101268.31;4806526;29;20123;-91
2023/08/09 05:03:23;;;;;;;17.15;9.63;;;;;;;11.97;100.00;101277.28;4806177;29;20050;-90
2023/08/09 05:09:44;;;;;;;21.25;10.88;;;;;;;12.06;100.00;101284.16;4806086;29;20112;-91
2023/08/09 05:15:56;;;;;;;25.60;11.88;;;;;;;12.22;100.00;101293.72;4806446;29;20077;-91
2023/08/09 05:21:51;;;;;;;35.43;12.90;;;;;;;12.38;100.00;101284.25;4881094;29;20069;-90
2023/08/09 05:27:39;;;;;;;37.53;13.52;;;;;;;12.44;100.00;101286.09;4881336;29;20085;-91
2023/08/09 05:30:05;;;;;;;40.63;14.25;;;;;;;12.43;100.00;101298.00;4880888;29;20029;-92
2023/08/09 05:32:31;;;;;;;36.67;13.88;;;;;;;12.53;100.00;101303.00;4849855;29;20400;-91
2023/08/09 05:34:59;;;;;;;41.23;14.63;;;;;;;12.60;100.00;101303.81;4864474;29;20033;-93
2023/08/09 05:37:25;;;;;;;44.15;15.23;;;;;;;12.57;100.00;101304.25;4881392;29;20084;-92
2023/08/09 05:39:50;;;;;;;44.33;15.37;;;;;;;12.54;100.00;101307.41;4848905;29;20128;-92
2023/08/09 05:42:16;;;;;;;44.47;15.43;;;;;;;12.59;100.00;101302.97;4849539;29;20351;-94
2023/08/09 05:44:41;;;;;;;40.15;15.23;;;;;;;12.58;100.00;101303.19;4864359;29;20126;-92
2023/08/09 05:47:07;;;;;;;45.40;15.10;;;;;;;12.56;100.00;101303.41;4879818;29;20033;-93
2023/08/09 05:49:32;;;;;;;51.40;17.17;;;;;;;12.50;100.00;101301.53;4864654;29;20037;-91
2023/08/09 05:51:59;;;;;;;46.45;16.25;;;;;;;12.54;100.00;101307.41;4863873;29;20070;-90
2023/08/09 05:54:24;;;;;;;42.97;16.15;;;;;;;12.60;100.00;101318.25;4863785;29;20120;-91
2023/08/09 05:56:52;;;;;;;52.33;17.97;;;;;;;12.65;100.00;101312.13;4864076;29;20128;-90
2023/08/09 05:59:19;;;;;;;54.30;17.23;;;;;;;12.68;100.00;101310.88;4863973;29;20040;-92
2023/08/09 06:01:49;;;;;;;54.00;18.40;;;;;;;12.73;100.00;101309.19;4849371;29;20041;-92
2023/08/09 06:04:15;;;;;;;69.65;19.50;;;;;;;12.73;100.00;101324.69;4849754;29;20044;-90
2023/08/09 06:06:41;;;;;;;82.20;18.63;;;;;;;12.73;100.00;101319.25;4863107;29;20043;-90
2023/08/09 06:09:09;;;;;;;60.70;19.65;;;;;;;12.78;100.00;101325.72;4880227;29;20112;-90
2023/08/09 06:11:34;;;;;;;85.07;21.55;;;;;;;12.82;100.00;101336.97;4863464;29;20033;-90
2023/08/09 06:14:03;;;;;;;61.17;20.47;;;;;;;12.76;100.00;101335.97;4863162;29;20037;-90
2023/08/09 06:16:33;;;;;;;63.60;21.10;;;;;;;12.91;100.00;101337.56;4880507;29;20025;-90
2023/08/09 06:18:59;;;;;;;138.20;23.02;;;;;;;12.86;100.00;101342.81;4863017;29;20033;-90
2023/08/09 06:21:24;;;;;;;125.03;21.07;;;;;;;12.81;100.00;101349.78;4863089;29;20041;-90
2023/08/09 06:23:52;;;;;;;128.77;21.73;;;;;;;12.80;100.00;101366.31;4880223;29;20041;-90
2023/08/09 06:26:20;;;;;;;139.68;21.75;;;;;;;12.86;100.00;101373.63;4863825;29;20045;-90
2023/08/09 06:28:45;;;;;;;185.07;22.02;;;;;;;12.87;100.00;101363.56;4863680;29;20085;-91
2023/08/09 06:31:15;;;;;;;138.73;21.53;;;;;;;12.94;100.00;101370.63;4863335;29;20439;-90
2023/08/09 06:33:42;;;;;;;161.57;22.67;;;;;;;13.04;100.00;101362.00;4864236;29;20033;-91
2023/08/09 06:36:09;;;;;;;107.78;22.27;;;;;;;13.19;100.00;101366.31;4879450;29;20036;-90
2023/08/09 06:38:42;;;;;;;121.68;23.23;;;;;;;13.25;100.00;101373.59;4879858;29;20061;-91
2023/08/09 06:41:07;;;;;;;82.83;23.27;;;;;;;13.38;100.00;101368.06;4863476;29;20037;-91
2023/08/09 06:43:36;;;;;;;127.68;23.55;;;;;;;13.51;100.00;101365.25;4863808;29;20044;-91
2023/08/09 06:46:07;;;;;;;139.07;25.37;;;;;;;13.64;100.00;101377.06;4863269;29;20085;-90
2023/08/09 06:48:35;;;;;;;69.80;22.27;;;;;;;13.73;100.00;101372.19;4864225;29;20029;-90
2023/08/09 06:51:01;;;;;;;90.13;23.08;;;;;;;13.89;100.00;101379.78;4863255;29;20035;-91
2023/08/09 06:53:30;;;;;;;83.68;23.48;;;;;;;13.93;100.00;101380.19;4879763;29;20028;-90
2023/08/09 06:55:55;;;;;;;68.47;23.15;;;;;;;14.02;100.00;101379.69;4863092;29;20129;-90
2023/08/09 06:58:24;;;;;;;58.63;23.70;;;;;;;13.98;100.00;101386.66;4878589;29;20055;-91
2023/08/09 07:00:51;;;;;;;66.07;23.95;;;;;;;14.04;100.00;101385.75;4863298;29;20557;-90
2023/08/09 07:03:20;;;;;;;57.87;21.60;;;;;;;14.23;100.00;101396.66;4878421;29;20040;-90
2023/08/09 07:05:45;;;;;;;57.33;21.88;;;;;;;14.38;100.00;101402.59;4863179;29;20029;-90
2023/08/09 07:08:11;;;;;;;54.63;22.85;;;;;;;14.43;100.00;101401.91;4878604;29;20398;-91
2023/08/09 07:10:39;;;;;;;45.33;21.73;;;;;;;14.27;100.00;101405.25;4863339;29;20041;-91
2023/08/09 07:13:12;;;;;;;43.58;20.45;;;;;;;14.23;100.00;101402.13;4863155;29;20120;-90
2023/08/09 07:15:38;;;;;;;45.13;21.67;;;;;;;14.31;100.00;101403.72;4863133;29;20041;-90
2023/08/09 07:18:03;;;;;;;47.10;22.08;;;;;;;14.48;100.00;101393.03;4862701;29;20039;-90
2023/08/09 07:20:31;;;;;;;43.53;21.80;;;;;;;14.48;100.00;101404.81;4863390;29;20040;-91
2023/08/09 07:22:59;;;;;;;40.08;20.77;;;;;;;14.47;100.00;101410.50;4862923;29;20112;-91
2023/08/09 07:25:25;;;;;;;40.88;20.33;;;;;;;14.49;100.00;101406.44;4879406;29;20082;-90
2023/08/09 07:27:52;;;;;;;37.33;20.40;;;;;;;14.65;100.00;101410.50;4878849;29;20454;-92
2023/08/09 07:30:18;;;;;;;39.92;21.48;;;;;;;14.83;100.00;101411.53;4880313;29;20063;-91
2023/08/09 07:32:48;;;;;;;32.88;20.02;;;;;;;15.02;100.00;101410.44;4883332;29;20021;-94
2023/08/09 07:35:13;;;;;;;32.25;19.40;;;;;;;15.24;100.00;101415.41;4866589;29;20036;-90
2023/08/09 07:37:55;;;;;;;30.23;19.40;;;;;;;15.27;100.00;101423.94;4866156;29;20455;-90
2023/08/09 07:40:28;;;;;;;28.48;17.65;;;;;;;15.38;100.00;101416.88;4866267;29;20051;-91
2023/08/09 07:43:01;;;;;;;23.33;16.23;;;;;;;15.40;100.00;101428.41;4882304;29;20044;-90
2023/08/09 07:45:28;;;;;;;25.08;16.58;;;;;;;15.42;100.00;101418.03;4866632;29;20033;-85
2023/08/09 07:47:54;;;;;;;27.97;17.10;;;;;;;15.61;100.00;101429.75;4866294;29;20033;-86
2023/08/09 07:50:23;;;;;;;24.42;16.48;;;;;;;15.74;100.00;101425.97;4883078;29;20037;-91
2023/08/09 07:52:51;;;;;;;21.92;14.90;;;;;;;15.74;100.00;101433.34;4866571;29;20116;-91
2023/08/09 07:55:20;;;;;;;19.13;14.50;;;;;;;15.80;100.00;101443.38;4851008;29;20132;-91
2023/08/09 07:57:48;;;;;;;19.20;13.13;;;;;;;15.78;100.00;101443.63;4868461;29;20065;-95
2023/08/09 08:00:17;;;;;;;18.40;13.83;;;;;;;15.78;100.00;101440.88;4867733;29;20040;-93
2023/08/09 08:02:46;;;;;;;17.88;13.68;;;;;;;15.76;100.00;101447.63;4866672;29;20111;-91
2023/08/09 08:05:13;;;;;;;19.52;14.43;;;;;;;15.88;100.00;101450.41;4866112;29;20037;-91
2023/08/09 08:07:43;;;;;;;18.35;13.20;;;;;;;16.08;100.00;101447.34;4866574;29;20068;-91
2023/08/09 08:10:14;;;;;;;17.13;13.05;;;;;;;16.25;100.00;101445.53;4866245;29;20043;-92
2023/08/09 08:12:44;;;;;;;18.53;13.43;;;;;;;16.32;100.00;101442.66;4866304;29;20482;-92
2023/08/09 08:15:10;;;;;;;18.05;12.82;;;;;;;16.34;100.00;101448.72;4866340;29;20049;-92
2023/08/09 08:17:38;;;;;;;18.98;13.10;;;;;;;16.09;100.00;101455.31;4866020;29;20033;-92
2023/08/09 08:20:10;;;;;;;22.17;13.93;;;;;;;16.04;100.00;101457.09;4865858;29;20116;-92
2023/08/09 08:22:39;;;;;;;21.65;14.00;;;;;;;16.17;100.00;101456.03;4866103;29;20097;-92
2023/08/09 08:25:05;;;;;;;19.03;14.30;;;;;;;16.18;100.00;101455.78;4866251;29;20100;-92
2023/08/09 08:27:37;;;;;;;19.58;12.82;;;;;;;16.35;100.00;101452.31;4865928;29;20033;-92
2023/08/09 08:30:04;;;;;;;17.23;12.88;;;;;;;16.43;100.00;101461.00;4865321;29;20036;-92
2023/08/09 08:32:34;;;;;;;16.90;11.30;;;;;;;16.33;100.00;101459.94;4882565;29;20029;-92
2023/08/09 08:35:04;;;;;;;16.65;10.80;;;;;;;16.23;100.00;101472.31;4865669;29;20033;-93
2023/08/09 08:37:32;;;;;;;14.87;11.27;;;;;;;16.17;100.00;101476.00;4880911;29;20390;-93
2023/08/09 08:40:00;;;;;;;14.07;10.68;;;;;;;16.22;100.00;101470.63;4850698;29;20084;-93
2023/08/09 08:42:27;;;;;;;17.05;9.85;;;;;;;16.14;100.00;101469.09;4864863;29;20542;-92
2023/08/09 08:44:52;;;;;;;14.40;10.50;;;;;;;16.20;100.00;101466.50;4881010;29;20494;-92
2023/08/09 08:47:18;;;;;;;14.43;10.20;;;;;;;16.19;100.00;101467.56;4881010;29;20025;-93
2023/08/09 08:49:50;;;;;;;13.68;9.95;;;;;;;16.16;100.00;101476.25;4865477;29;20119;-93
2023/08/09 08:52:16;;;;;;;15.93;9.98;;;;;;;16.27;100.00;101476.25;4865785;29;20062;-92
2023/08/09 08:54:42;;;;;;;17.70;9.87;;;;;;;16.35;100.00;101486.00;4865217;29;20028;-93
2023/08/09 08:57:08;;;;;;;15.18;9.65;;;;;;;16.35;100.00;101483.28;4865434;29;20056;-92
2023/08/09 08:59:36;;;;;;;16.07;9.97;;;;;;;16.20;100.00;101483.75;4865685;29;20044;-93
2023/08/09 09:02:10;;;;;;;15.30;10.02;;;;;;;16.17;100.00;101486.97;4881593;29;20041;-93
2023/08/09 09:04:43;;;;;;;14.07;9.50;;;;;;;16.06;100.00;101487.78;4849976;29;20398;-92
2023/08/09 09:07:09;;;;;;;14.15;9.05;;;;;;;16.12;100.00;101495.03;4880973;29;20130;-93
2023/08/09 09:09:45;;;;;;;12.83;9.43;;;;;;;16.23;100.00;101496.97;4865660;29;20526;-93
2023/08/09 09:12:18;;;;;;;12.95;9.60;;;;;;;16.33;100.00;101487.31;4881440;29;20069;-93
2023/08/09 09:14:44;;;;;;;14.82;8.95;;;;;;;16.49;100.00;101503.03;4850937;29;20359;-93
2023/08/09 09:17:12;;;;;;;13.37;8.47;;;;;;;16.52;100.00;101490.75;4849804;29;20040;-93
2023/08/09 09:19:43;;;;;;;11.20;8.52;;;;;;;16.75;100.00;101487.16;4865121;29;20029;-93
2023/08/09 09:22:08;;;;;;;17.15;9.07;;;;;;;16.94;100.00;101491.44;4866405;29;20032;-92
2023/08/09 09:24:35;;;;;;;11.00;7.57;;;;;;;17.06;100.00;101496.06;4865071;29;20120;-92
2023/08/09 09:27:00;;;;;;;13.02;7.15;;;;;;;17.24;100.00;101489.53;4880203;29;20032;-93
2023/08/09 09:29:32;;;;;;;12.83;7.60;;;;;;;17.27;100.00;101495.41;4865001;29;20513;-93
2023/08/09 09:32:06;;;;;;;12.38;8.30;;;;;;;17.16;100.00;101508.06;4882226;29;20029;-93
2023/08/09 09:34:34;;;;;;;11.23;8.40;;;;;;;17.11;100.00;101512.59;4880684;29;20455;-93
2023/08/09 09:37:00;;;;;;;10.70;8.70;;;;;;;17.32;100.00;101511.94;4864857;29;20059;-93
2023/08/09 09:39:28;;;;;;;11.77;8.70;;;;;;;17.59;100.00;101505.03;4881732;29;20056;-93
2023/08/09 09:41:53;;;;;;;16.05;9.20;;;;;;;17.86;100.00;101499.72;4864708;29;20087;-93
2023/08/09 09:44:23;;;;;;;10.90;8.63;;;;;;;17.98;100.00;101503.28;4881366;29;20482;-93
2023/08/09 09:46:57;;;;;;;12.57;8.95;;;;;;;18.02;100.00;101498.91;4849946;29;20121;-93
2023/08/09 09:49:25;;;;;;;13.68;9.25;;;;;;;18.15;100.00;101495.03;4864565;29;20399;-93
2023/08/09 09:51:54;;;;;;;12.30;8.93;;;;;;;18.43;100.00;101490.50;4849689;29;20467;-93
2023/08/09 09:54:21;;;;;;;11.80;8.05;;;;;;;18.70;100.00;101481.53;4864587;29;20033;-93
2023/08/09 09:56:47;;;;;;;11.27;8.93;;;;;;;19.06;100.00;101480.09;4864655;29;20493;-93
2023/08/09 09:59:14;;;;;;;9.80;8.10;;;;;;;19.18;100.00;101485.44;4881037;29;20110;-94
2023/08/09 10:01:42;;;;;;;9.70;7.32;;;;;;;18.82;100.00;101487.72;4864626;29;20029;-94
2023/08/09 10:04:11;;;;;;;9.73;6.90;;;;;;;18.47;100.00;101494.41;4864672;29;20025;-93
2023/08/09 10:06:43;;;;;;;8.32;7.10;;;;;;;18.47;100.00;101494.41;4864999;29;20124;-93
2023/08/09 10:09:10;;;;;;;7.43;6.43;;;;;;;18.50;100.00;101493.91;4865485;29;20029;-92
2023/08/09 10:11:37;;;;;;;9.37;6.60;;;;;;;18.56;100.00;101490.13;4866968;29;20064;-93
2023/08/09 10:14:07;;;;;;;9.07;6.07;;;;;;;18.70;100.00;101485.09;4870668;29;20029;-93
2023/08/09 10:16:35;;;;;;;9.30;6.90;;;;;;;19.06;100.00;101493.84;4870817;29;20040;-94
2023/08/09 10:19:05;;;;;;;7.93;6.82;;;;;;;19.48;100.00;101481.34;4870096;29;20121;-94
2023/08/09 10:21:32;;;;;;;10.43;6.95;;;;;;;19.85;99.13;101485.31;4869012;29;20029;-93
2023/08/09 10:24:22;;;;;;;6.17;5.40;;;;;;;20.00;98.45;101482.66;4868009;29;20101;-95
2023/08/09 10:27:06;;;;;;;7.03;5.60;;;;;;;20.37;97.13;101486.50;5043747;27;2884022;-94
2023/08/09 10:29:32;;;;;;;7.03;5.63;;;;;;;20.32;95.78;101496.38;5114152;28;20039;-94
2023/08/09 10:32:03;;;;;;;5.07;4.40;;;;;;;20.43;90.32;101501.97;5113922;28;20019;-94
2023/08/09 10:34:40;;;;;;;7.00;4.50;;;;;;;20.46;90.12;101491.25;5112157;28;20092;-94
2023/08/09 10:37:10;;;;;;;5.57;4.80;;;;;;;20.47;88.16;101503.09;5112492;28;20024;-94
2023/08/09 10:39:39;;;;;;;4.95;4.40;;;;;;;20.40;87.44;101506.09;5114509;28;20475;-94
2023/08/09 10:42:07;;;;;;;7.30;4.80;;;;;;;20.26;88.71;101515.94;5113835;28;20032;-93
2023/08/09 10:44:51;;;;;;;5.20;4.70;;;;;;;20.28;93.79;101500.75;5112572;28;20100;-95
2023/08/09 10:47:28;;;;;;;5.00;4.60;;;;;;;20.58;90.99;101503.97;5112891;28;20032;-94
2023/08/09 10:49:53;;;;;;;4.90;4.50;;;;;;;21.01;86.98;101507.56;5111144;28;20504;-94
2023/08/09 10:52:30;;;;;;;4.40;4.00;;;;;;;21.03;81.55;101503.41;5111086;28;20081;-94
2023/08/09 10:55:26;;;;;;;5.90;4.10;;;;;;;21.11;92.19;101509.50;5111250;28;20024;-94
2023/08/09 10:57:56;;;;;;;5.22;3.63;;;;;;;21.66;80.41;101509.97;5089643;28;20031;-94
2023/08/09 11:00:23;;;;;;;4.80;3.10;;;;;;;22.29;78.70;101497.78;5111018;28;20028;-94
2023/08/09 11:02:54;;;;;;;6.10;3.58;;;;;;;22.51;75.11;101505.78;5110860;28;20088;-94
2023/08/09 11:05:20;;;;;;;4.10;3.40;;;;;;;22.60;73.86;101513.25;5110656;28;20024;-94
2023/08/09 11:07:51;;;;;;;5.38;3.00;;;;;;;22.46;70.49;101505.81;5111293;28;20028;-95
2023/08/09 11:10:33;;;;;;;4.63;2.80;;;;;;;22.52;75.38;101496.41;5094253;28;20040;-94
2023/08/09 11:13:17;;;;;;;4.37;2.87;;;;;;;22.69;71.14;101493.28;5110929;28;20042;-95
2023/08/09 11:15:45;;;;;;;3.50;2.50;;;;;;;22.76;70.60;101499.34;5111287;28;20023;-95
2023/08/09 11:18:11;;;;;;;5.55;2.40;;;;;;;22.80;65.73;101500.44;5110781;28;20024;-95
2023/08/09 11:20:38;;;;;;;2.55;2.35;;;;;;;22.82;64.90;101501.00;5110515;28;20028;-95
2023/08/09 11:23:08;;;;;;;3.23;2.20;;;;;;;22.62;63.51;101501.91;5111197;28;20053;-95
2023/08/09 11:25:34;;;;;;;4.05;2.58;;;;;;;22.80;64.35;101497.69;5112347;28;20131;-96
2023/08/09 11:28:02;;;;;;;2.35;2.10;;;;;;;23.98;62.40;101496.19;5110779;28;20113;-96
2023/08/09 11:30:36;;;;;;;4.57;1.85;;;;;;;25.00;61.01;101512.88;5110276;28;20456;-95
2023/08/09 11:33:11;;;;;;;3.20;2.30;;;;;;;25.31;54.20;101509.72;5111065;28;20040;-96
2023/08/09 11:35:43;;;;;;;3.50;2.40;;;;;;;24.58;57.82;101509.75;5109928;28;20085;-96
2023/08/09 11:38:11;;;;;;;3.70;2.10;;;;;;;25.42;55.41;101511.22;5098024;28;20028;-96
2023/08/09 11:40:40;;;;;;;3.95;2.30;;;;;;;27.44;50.59;101498.06;5096414;28;20020;-95
2023/08/09 11:43:10;;;;;;;3.03;2.35;;;;;;;28.17;48.99;101509.94;5096552;28;20028;-96
2023/08/09 11:45:48;;;;;;;2.83;2.20;;;;;;;29.21;48.32;101503.09;5098633;28;20024;-96
2023/08/09 11:48:36;;;;;;;2.80;2.60;;;;;;;31.47;44.00;101499.91;5096414;28;20487;-96
2023/08/09 11:51:15;;;;;;;3.08;2.50;;;;;;;29.92;41.65;101510.34;5096768;28;20526;-96
2023/08/09 11:53:45;;;;;;;5.40;2.25;;;;;;;28.48;42.64;101503.53;5096684;28;20039;-96
2023/08/09 11:56:16;;;;;;;3.15;2.67;;;;;;;27.43;45.10;101505.59;5096322;28;20035;-96
2023/08/09 11:58:52;;;;;;;4.80;2.90;;;;;;;26.51;48.97;101511.09;5096290;28;20036;-96
2023/08/09 12:01:20;;;;;;;5.03;3.50;;;;;;;25.53;49.12;101514.69;5096062;28;20032;-96
2023/08/09 12:03:49;;;;;;;4.05;3.63;;;;;;;25.25;50.87;101522.81;5095883;28;20034;-96
2023/08/09 12:06:33;;;;;;;5.03;3.40;;;;;;;27.54;47.55;101522.09;5096278;28;20066;-96
2023/08/09 12:08:58;;;;;;;4.22;3.30;;;;;;;29.11;43.67;101516.56;5093472;28;20498;-96
2023/08/09 12:11:27;;;;;;;8.17;3.80;;;;;;;28.17;43.24;101514.69;5079947;28;20036;-94
2023/08/09 12:13:52;;;;;;;8.88;4.60;;;;;;;28.04;43.57;101527.56;5095010;28;20024;-93
2023/08/09 12:16:20;;;;;;;5.40;4.90;;;;;;;29.20;42.15;101514.59;5096626;28;20016;-94
2023/08/09 12:18:48;;;;;;;6.90;5.20;;;;;;;30.60;38.98;101518.06;5096332;28;20043;-94
2023/08/09 12:21:15;;;;;;;4.85;4.40;;;;;;;30.55;38.04;101532.28;5074852;28;20028;-93
2023/08/09 12:23:46;;;;;;;6.32;4.97;;;;;;;29.59;39.28;101526.81;5092232;28;20094;-95
2023/08/09 12:26:14;;;;;;;4.93;3.83;;;;;;;28.89;41.70;101523.88;5074513;28;20053;-96
2023/08/09 12:28:40;;;;;;;6.72;4.60;;;;;;;30.24;40.52;101522.16;5088844;28;20042;-96
2023/08/09 12:31:08;;;;;;;5.10;4.60;;;;;;;32.91;34.59;101525.81;5074507;28;20033;-96
2023/08/09 12:33:34;;;;;;;4.00;3.53;;;;;;;33.14;33.92;101526.94;5091476;28;20460;-95
2023/08/09 12:35:59;;;;;;;6.78;4.50;;;;;;;33.14;34.72;101529.75;5075675;28;20033;-95
2023/08/09 12:38:30;;;;;;;6.53;3.70;;;;;;;33.10;34.39;101525.19;5076634;28;20033;-96
2023/08/09 12:40:55;;;;;;;5.18;3.90;;;;;;;30.99;37.73;101534.03;5075149;28;20025;-96
2023/08/09 12:43:21;;;;;;;3.67;3.10;;;;;;;29.37;40.55;101558.53;5091782;28;20039;-96
2023/08/09 12:45:48;;;;;;;4.33;2.97;;;;;;;30.63;38.90;101530.59;5076033;28;20064;-96
2023/08/09 12:48:15;;;;;;;4.00;2.38;;;;;;;33.14;35.65;101538.19;5091176;28;20041;-96
2023/08/09 12:50:43;;;;;;;4.97;1.90;;;;;;;35.39;30.61;101529.75;5075574;28;20064;-96
2023/08/09 12:53:08;;;;;;;2.83;2.00;;;;;;;36.91;28.22;101532.56;5091666;28;20047;-96
2023/08/09 12:55:36;;;;;;;3.47;2.07;;;;;;;38.06;25.58;101532.06;5074640;28;20036;-96
2023/08/09 12:58:02;;;;;;;2.97;2.40;;;;;;;38.94;24.06;101543.75;5091633;28;20526;-96
2023/08/09 13:00:32;;;;;;;4.40;2.70;;;;;;;39.03;24.24;101534.09;5091391;28;20032;-96
2023/08/09 13:03:00;;;;;;;4.47;2.55;;;;;;;39.21;24.17;101532.19;5074771;28;20024;-96
2023/08/09 13:05:28;;;;;;;6.18;2.80;;;;;;;38.29;24.39;101527.44;5075590;28;20031;-96
2023/08/09 13:07:56;;;;;;;5.82;2.67;;;;;;;36.99;26.99;101526.66;5074548;28;20128;-96
2023/08/09 13:10:24;;;;;;;8.23;2.58;;;;;;;36.84;26.89;101527.63;5075463;28;20520;-96
2023/08/09 13:12:49;;;;;;;4.97;2.50;;;;;;;34.72;27.65;101536.19;5074396;28;20036;-96
2023/08/09 13:15:15;;;;;;;3.33;2.13;;;;;;;32.64;31.13;101536.53;5074184;28;20040;-96
2023/08/09 13:17:43;;;;;;;4.63;2.37;;;;;;;31.08;32.61;101544.06;5064466;28;20089;-96
2023/08/09 13:20:12;;;;;;;4.05;2.20;;;;;;;32.70;31.18;101536.00;5090436;28;20027;-96
2023/08/09 13:22:42;;;;;;;3.67;2.50;;;;;;;35.03;28.00;101530.94;5093917;28;20173;-96
2023/08/09 13:25:11;;;;;;;5.35;1.90;;;;;;;37.08;25.99;101534.03;5094488;28;20077;-96
2023/08/09 13:27:39;;;;;;;3.03;2.50;;;;;;;37.86;23.71;101531.44;5095271;28;20552;-96
2023/08/09 13:30:09;;;;;;;3.25;2.20;;;;;;;38.05;23.48;101529.63;5094214;28;20083;-96
2023/08/09 13:32:36;;;;;;;4.25;2.10;;;;;;;38.68;22.94;101532.66;5094111;28;20127;-96
2023/08/09 13:35:01;;;;;;;4.88;2.20;;;;;;;39.34;22.32;101549.69;5094230;28;20032;-96
2023/08/09 13:37:27;;;;;;;4.60;2.60;;;;;;;39.40;21.37;101545.25;5093877;28;20123;-96
2023/08/09 13:39:53;;;;;;;4.37;2.77;;;;;;;39.75;20.22;101555.16;5076863;28;20031;-96
2023/08/09 13:42:20;;;;;;;3.97;2.63;;;;;;;39.34;20.39;101557.41;5094950;28;20278;-96
2023/08/09 13:44:48;;;;;;;4.82;2.42;;;;;;;38.21;21.91;101552.88;5094116;28;20039;-96
2023/08/09 13:47:14;;;;;;;2.55;2.30;;;;;;;37.73;22.02;101553.53;5094285;28;20024;-96
2023/08/09 13:49:39;;;;;;;3.30;2.70;;;;;;;38.38;22.05;101545.72;5094478;28;20371;-96
2023/08/09 13:52:10;;;;;;;3.72;2.30;;;;;;;39.33;21.49;101544.41;5095304;28;20472;-96
2023/08/09 13:54:36;;;;;;;3.60;2.70;;;;;;;39.45;20.95;101552.56;5094566;28;20040;-96
2023/08/09 13:57:01;;;;;;;4.68;2.30;;;;;;;39.69;21.71;101544.56;5094511;28;20040;-96
2023/08/09 13:59:27;;;;;;;4.47;2.40;;;;;;;39.04;21.56;101552.75;5093717;28;20023;-96
2023/08/09 14:01:52;;;;;;;3.93;2.60;;;;;;;36.96;22.71;101540.75;5095077;28;20035;-96
2023/08/09 14:04:18;;;;;;;4.53;2.10;;;;;;;36.60;23.21;101548.59;5094094;28;20046;-96
2023/08/09 14:06:47;;;;;;;3.63;2.13;;;;;;;36.22;22.65;101554.00;5093850;28;20032;-96
2023/08/09 14:09:15;;;;;;;3.63;2.22;;;;;;;37.02;22.87;101544.88;5094430;28;20028;-96
2023/08/09 14:11:40;;;;;;;4.03;2.15;;;;;;;38.48;20.77;101554.75;5077549;28;20043;-96
2023/08/09 14:14:14;;;;;;;4.17;2.10;;;;;;;39.12;21.53;101558.09;5094647;28;20114;-96
2023/08/09 14:16:39;;;;;;;3.97;2.42;;;;;;;39.36;19.72;101561.44;5093618;28;20024;-96
2023/08/09 14:19:08;;;;;;;3.07;2.27;;;;;;;39.88;19.51;101561.28;5093401;28;20028;-96
2023/08/09 14:21:34;;;;;;;3.83;2.10;;;;;;;40.06;18.33;101571.91;5077362;28;20028;-96
2023/08/09 14:23:59;;;;;;;2.53;2.28;;;;;;;39.78;17.96;101588.44;5094174;28;20067;-96
2023/08/09 14:26:25;;;;;;;4.47;2.20;;;;;;;39.63;19.18;101566.91;5094444;28;20496;-96
2023/08/09 14:28:50;;;;;;;3.30;2.37;;;;;;;40.11;18.83;101571.50;5093275;28;20388;-96
2023/08/09 14:31:19;;;;;;;2.43;2.23;;;;;;;38.90;20.01;101570.47;5093804;28;20040;-96
2023/08/09 14:33:52;;;;;;;3.70;2.20;;;;;;;36.91;20.86;101570.16;5093517;28;20081;-96
2023/08/09 14:36:21;;;;;;;3.22;2.30;;;;;;;37.13;20.55;101568.47;5093560;28;20024;-96
2023/08/09 14:38:47;;;;;;;2.17;1.98;;;;;;;37.80;20.78;101566.97;5093214;28;20029;-96
2023/08/09 14:41:13;;;;;;;2.40;2.20;;;;;;;38.34;19.91;101576.06;5093375;28;20024;-96
2023/08/09 14:43:39;;;;;;;3.25;2.20;;;;;;;38.42;19.75;101589.09;5093764;28;20028;-96
2023/08/09 14:46:07;;;;;;;2.60;2.07;;;;;;;38.98;19.47;101586.34;5093382;28;20047;-96
2023/08/09 14:48:33;;;;;;;3.35;2.42;;;;;;;38.33;20.33;101588.63;5093559;28;20035;-96
2023/08/09 14:51:04;;;;;;;2.67;2.20;;;;;;;38.06;20.39;101593.53;5092955;28;20082;-96
2023/08/09 14:53:38;;;;;;;3.33;2.33;;;;;;;39.09;21.14;101595.72;5077311;28;20105;-96
2023/08/09 14:56:11;;;;;;;5.78;2.47;;;;;;;39.86;21.18;101582.78;5092799;28;20028;-96
2023/08/09 14:58:42;;;;;;;4.20;2.30;;;;;;;40.84;19.56;101581.72;5093849;28;20078;-96
2023/08/09 15:01:12;;;;;;;3.30;2.33;;;;;;;40.96;19.13;101589.88;5093709;28;20080;-96
2023/08/09 15:03:37;;;;;;;9.00;2.60;;;;;;;40.13;19.85;101578.41;5093465;28;20032;-96
2023/08/09 15:06:07;;;;;;;6.32;2.60;;;;;;;40.03;20.34;101590.56;5092785;28;20495;-96
2023/08/09 15:08:33;;;;;;;5.17;2.40;;;;;;;38.53;21.17;101588.38;5077043;28;20127;-96